Time;durP1;ratioP1;P1;durP2;ratioP2;P2;SDS_P1;SDS_P2;PMS_P1;PMS_P2;Temp;Humidity;BMP_temperature;BMP_pressure;BME280_temperature;BME280_humidity;BME280_pressure;Samples;Min_cycle;Max_cycle;Signal;HPM_P1;HPM_P2
2021/07/16 00:01:40;;;;;;;21.87;8.03;;;;;;;24.09;52.82;100321.47;125428;1099;104146;-78
2021/07/16 00:04:12;;;;;;;16.47;7.43;;;;;;;24.10;53.01;100324.11;126179;1099;104309;-79
2021/07/16 00:06:43;;;;;;;18.53;7.50;;;;;;;24.07;53.21;100325.99;126228;1099;104229;-79
2021/07/16 00:09:15;;;;;;;18.60;7.47;;;;;;;24.01;53.64;100314.50;126187;1099;101985;-77
2021/07/16 00:11:46;;;;;;;18.60;7.57;;;;;;;23.95;54.06;100309.28;125387;1099;104303;-78
2021/07/16 00:14:17;;;;;;;20.13;7.63;;;;;;;23.95;53.91;100313.73;125449;1099;104297;-78
2021/07/16 00:16:48;;;;;;;17.25;7.40;;;;;;;23.97;54.53;100304.77;126181;1099;104216;-78
2021/07/16 00:19:18;;;;;;;19.37;6.87;;;;;;;23.96;54.85;100305.66;126195;1099;104220;-79
2021/07/16 00:21:49;;;;;;;19.30;7.13;;;;;;;23.88;55.23;100306.78;126094;1099;104264;-78
2021/07/16 00:24:20;;;;;;;18.80;7.50;;;;;;;23.76;55.33;100310.56;125402;1099;104434;-78
2021/07/16 00:26:51;;;;;;;20.30;7.67;;;;;;;23.68;55.49;100316.98;126247;1099;104181;-79
2021/07/16 00:29:24;;;;;;;19.10;7.60;;;;;;;23.63;55.68;100318.86;126196;1099;104195;-79
2021/07/16 00:31:55;;;;;;;19.67;7.83;;;;;;;23.57;55.56;100315.44;126078;1099;104300;-79
2021/07/16 00:34:26;;;;;;;18.10;7.40;;;;;;;23.49;56.23;100324.50;126251;1099;104239;-78
2021/07/16 00:36:57;;;;;;;20.57;7.53;;;;;;;23.43;55.87;100323.75;126281;1099;104207;-79
2021/07/16 00:39:28;;;;;;;21.00;8.13;;;;;;;23.40;56.51;100322.00;126345;1099;104146;-78
2021/07/16 00:41:59;;;;;;;22.20;8.10;;;;;;;23.41;56.47;100320.23;126273;1099;104143;-79
2021/07/16 00:44:33;;;;;;;18.00;7.53;;;;;;;23.48;56.89;100321.85;126347;1099;104143;-78
2021/07/16 00:47:04;;;;;;;19.93;7.83;;;;;;;23.57;56.80;100324.34;126367;1098;104175;-78
2021/07/16 00:49:35;;;;;;;21.33;7.67;;;;;;;23.62;56.68;100319.79;126316;1099;104303;-79
2021/07/16 00:52:07;;;;;;;20.47;8.27;;;;;;;23.60;56.84;100329.63;126294;1099;104233;-79
2021/07/16 00:54:39;;;;;;;19.97;8.10;;;;;;;23.63;57.04;100334.92;126372;1098;104195;-79
2021/07/16 00:57:10;;;;;;;19.10;7.47;;;;;;;23.57;57.07;100318.98;126331;1099;104189;-79
2021/07/16 00:59:42;;;;;;;19.50;8.07;;;;;;;23.50;57.54;100334.30;126341;1099;104146;-78
2021/07/16 01:02:14;;;;;;;19.03;7.63;;;;;;;23.46;57.13;100331.72;126266;1099;104277;-78
2021/07/16 01:04:46;;;;;;;22.57;8.30;;;;;;;23.45;57.52;100328.17;126283;1099;104223;-78
2021/07/16 01:07:16;;;;;;;22.33;8.03;;;;;;;23.45;57.74;100324.59;126324;1099;104191;-78
2021/07/16 01:09:50;;;;;;;20.10;8.10;;;;;;;23.43;57.93;100326.42;126318;1099;104146;-78
2021/07/16 01:12:22;;;;;;;17.03;7.53;;;;;;;23.42;58.02;100325.55;126262;1099;104246;-78
2021/07/16 01:14:54;;;;;;;18.03;7.87;;;;;;;23.41;58.11;100334.48;126311;1099;104309;-78
2021/07/16 01:17:26;;;;;;;21.23;7.90;;;;;;;23.42;58.05;100325.55;126350;1099;104675;-79
2021/07/16 01:20:02;;;;;;;20.40;8.10;;;;;;;23.43;57.97;100331.78;126346;1099;104175;-78
2021/07/16 01:22:37;;;;;;;20.93;7.60;;;;;;;23.40;58.48;100331.84;126238;1099;104165;-79
2021/07/16 01:25:11;;;;;;;17.23;7.63;;;;;;;23.34;58.21;100332.83;126305;1099;104192;-79
2021/07/16 01:27:44;;;;;;;21.13;7.90;;;;;;;23.31;58.63;100335.57;126261;1099;104137;-79
2021/07/16 01:30:19;;;;;;;20.80;7.67;;;;;;;23.29;58.70;100335.59;126361;1099;104666;-78
2021/07/16 01:32:50;;;;;;;20.33;7.50;;;;;;;23.25;58.86;100333.01;126288;1099;104592;-78
2021/07/16 01:35:22;;;;;;;18.40;7.70;;;;;;;23.18;59.27;100344.77;126276;1099;104197;-78
2021/07/16 01:37:53;;;;;;;21.10;7.30;;;;;;;23.20;59.29;100341.13;126347;1098;104179;-78
2021/07/16 01:40:27;;;;;;;21.20;8.10;;;;;;;23.18;59.27;100332.25;126324;1099;104163;-78
2021/07/16 01:42:59;;;;;;;20.07;7.53;;;;;;;23.09;59.24;100332.42;126288;1099;104149;-78
2021/07/16 01:45:34;;;;;;;18.33;7.70;;;;;;;23.01;59.32;100328.98;126338;1099;104584;-78
2021/07/16 01:48:07;;;;;;;19.97;7.43;;;;;;;22.97;59.80;100328.17;126333;1099;104252;-79
2021/07/16 01:50:39;;;;;;;18.12;7.12;;;;;;;23.01;59.40;100329.86;126343;1099;104217;-78
2021/07/16 01:53:12;;;;;;;21.13;7.83;;;;;;;23.07;59.97;100328.87;126302;1099;104211;-78
2021/07/16 01:55:44;;;;;;;21.10;7.20;;;;;;;23.05;60.03;100325.35;126308;1099;104176;-79
2021/07/16 01:58:16;;;;;;;21.43;7.20;;;;;;;23.02;59.69;100328.08;126339;1099;104217;-78
2021/07/16 02:00:49;;;;;;;16.87;6.73;;;;;;;22.99;60.11;100329.02;126360;1099;104178;-78
2021/07/16 02:03:20;;;;;;;18.87;7.20;;;;;;;22.97;60.25;100329.04;126210;1099;104236;-78
2021/07/16 02:05:51;;;;;;;19.80;7.83;;;;;;;22.99;60.25;100323.66;126276;1099;104233;-80
2021/07/16 02:08:25;;;;;;;18.17;7.50;;;;;;;22.98;60.28;100321.88;126365;1099;104140;-79
2021/07/16 02:10:55;;;;;;;;;;;;;;;22.92;59.48;100314.87;126368;1099;104156;-79
2021/07/16 02:13:26;;;;;;;13.87;6.67;;;;;;;22.91;60.50;100312.23;126306;1099;104239;-80
2021/07/16 02:15:57;;;;;;;19.97;7.37;;;;;;;22.91;60.72;100317.58;126357;1099;104146;-78
2021/07/16 02:18:28;;;;;;;17.80;7.20;;;;;;;22.89;60.46;100314.02;126299;1099;104214;-79
2021/07/16 02:21:00;;;;;;;37.97;10.07;;;;;;;22.88;60.50;100312.28;126343;1099;104149;-78
2021/07/16 02:23:32;;;;;;;27.03;7.90;;;;;;;22.86;60.86;100317.66;126255;1099;104294;-77
2021/07/16 02:26:03;;;;;;;31.00;9.03;;;;;;;22.83;60.65;100319.48;126327;1099;104194;-79
2021/07/16 02:28:34;;;;;;;26.47;8.50;;;;;;;22.81;61.22;100322.19;126283;1096;104133;-78
2021/07/16 02:31:07;;;;;;;30.60;8.63;;;;;;;22.83;60.61;100319.48;126299;1098;104319;-78
2021/07/16 02:33:39;;;;;;;33.70;9.28;;;;;;;22.83;60.95;100323.06;126242;1099;104222;-79
2021/07/16 02:36:11;;;;;;;29.63;8.37;;;;;;;22.81;61.30;100332.88;126344;1099;104198;-79
2021/07/16 02:38:42;;;;;;;22.15;8.45;;;;;;;22.83;61.38;100319.48;126353;1097;104155;-78
2021/07/16 02:41:13;;;;;;;25.17;8.50;;;;;;;22.85;61.54;100323.91;126341;1099;104158;-79
2021/07/16 02:43:44;;;;;;;25.07;8.13;;;;;;;22.90;61.50;100331.85;126249;1099;104139;-79
2021/07/16 02:46:18;;;;;;;20.13;7.50;;;;;;;22.92;61.72;100325.58;126351;1099;104255;-78
2021/07/16 02:48:51;;;;;;;19.47;7.90;;;;;;;22.92;61.50;100330.92;126325;1099;104981;-79
2021/07/16 02:51:22;;;;;;;20.07;7.70;;;;;;;22.92;62.06;100330.92;126320;1099;104169;-78
2021/07/16 02:53:53;;;;;;;17.50;6.87;;;;;;;22.91;62.06;100321.13;126250;1099;104261;-79
2021/07/16 02:56:24;;;;;;;20.00;7.07;;;;;;;22.93;62.15;100321.09;126329;1099;104637;-79
2021/07/16 02:58:54;;;;;;;23.73;7.27;;;;;;;22.96;62.54;100319.23;126332;1099;104146;-79
2021/07/16 03:01:25;;;;;;;23.03;7.73;;;;;;;23.01;61.78;100318.28;126362;1099;104144;-79
2021/07/16 03:03:56;;;;;;;16.00;6.60;;;;;;;23.02;61.51;100320.93;126306;1098;104188;-80
2021/07/16 03:06:27;;;;;;;17.27;7.30;;;;;;;23.02;62.10;100320.05;126348;1099;117807;-79
2021/07/16 03:08:58;;;;;;;23.17;7.47;;;;;;;22.90;61.61;100324.70;126339;1099;104326;-79
2021/07/16 03:11:30;;;;;;;18.53;7.50;;;;;;;22.78;61.95;100328.48;126315;1099;104576;-79
2021/07/16 03:14:02;;;;;;;20.97;7.83;;;;;;;22.71;62.46;100328.63;126272;1099;104251;-78
2021/07/16 03:16:33;;;;;;;16.63;6.77;;;;;;;22.65;62.41;100337.62;126269;1096;104249;-78
2021/07/16 03:19:06;;;;;;;16.77;7.57;;;;;;;22.67;62.21;100337.59;126290;1099;104823;-78
2021/07/16 03:21:37;;;;;;;22.07;7.47;;;;;;;22.67;62.18;100338.47;126299;1098;104390;-78
2021/07/16 03:24:07;;;;;;;20.50;7.33;;;;;;;22.70;62.31;100338.41;126340;1099;104172;-80
2021/07/16 03:26:38;;;;;;;16.00;6.80;;;;;;;22.72;62.66;100343.73;126281;1099;104248;-79
2021/07/16 03:29:12;;;;;;;19.67;6.85;;;;;;;22.73;62.41;100346.39;126260;1099;104252;-79
2021/07/16 03:31:43;;;;;;;14.83;6.47;;;;;;;22.77;62.74;100341.89;126362;1099;104258;-79
2021/07/16 03:34:14;;;;;;;19.67;6.77;;;;;;;22.83;62.40;100346.23;126260;1098;104168;-78
2021/07/16 03:36:44;;;;;;;17.23;7.07;;;;;;;22.84;62.57;100342.66;126284;1099;104296;-79
2021/07/16 03:39:15;;;;;;;18.13;7.30;;;;;;;22.78;62.40;100347.22;126292;1099;104233;-79
2021/07/16 03:41:46;;;;;;;58.30;9.97;;;;;;;22.77;63.20;100344.56;126340;1097;104666;-78
2021/07/16 03:44:16;;;;;;;26.17;8.00;;;;;;;22.77;63.04;100347.24;126225;1099;104216;-78
2021/07/16 03:46:48;;;;;;;20.43;6.97;;;;;;;22.77;62.98;100353.46;126250;1099;105515;-79
2021/07/16 03:49:18;;;;;;;20.57;6.80;;;;;;;22.72;62.88;100349.09;126284;1099;104217;-79
2021/07/16 03:51:50;;;;;;;16.70;6.73;;;;;;;22.63;62.47;100349.27;126327;1099;104166;-80
2021/07/16 03:54:25;;;;;;;17.87;6.50;;;;;;;22.61;62.97;100355.52;126339;1099;104255;-78
2021/07/16 03:56:59;;;;;;;17.70;6.70;;;;;;;22.57;63.60;100351.11;126265;1098;104206;-80
2021/07/16 03:59:32;;;;;;;22.33;7.07;;;;;;;22.57;63.30;100352.92;126280;1099;104204;-80
2021/07/16 04:02:05;;;;;;;17.98;6.75;;;;;;;22.53;63.60;100352.09;126209;1098;104137;-79
2021/07/16 04:04:38;;;;;;;15.87;7.13;;;;;;;22.50;63.25;100354.81;126282;1099;104567;-79
2021/07/16 04:07:17;;;;;;;22.20;7.40;;;;;;;22.50;63.84;100354.81;126214;1098;104204;-79
2021/07/16 04:09:51;;;;;;;20.77;7.57;;;;;;;22.53;63.55;100354.77;126322;1098;104272;-79
2021/07/16 04:12:22;;;;;;;19.00;6.80;;;;;;;22.53;63.13;100357.44;126288;1099;104270;-78
2021/07/16 04:14:54;;;;;;;20.20;7.03;;;;;;;22.52;63.75;100355.66;126327;1099;104242;-78
2021/07/16 04:17:28;;;;;;;21.03;7.23;;;;;;;22.53;63.75;100360.11;126187;1099;104621;-76
2021/07/16 04:20:00;;;;;;;24.63;7.37;;;;;;;22.58;63.70;100374.28;126256;1099;104172;-78
2021/07/16 04:22:30;;;;;;;22.50;7.00;;;;;;;22.60;63.51;100371.58;126304;1099;104162;-78
2021/07/16 04:25:01;;;;;;;18.27;7.10;;;;;;;22.61;63.53;100366.21;126264;1099;104200;-78
2021/07/16 04:27:31;;;;;;;20.63;8.00;;;;;;;22.57;63.82;100364.48;126288;1099;104169;-78
2021/07/16 04:30:02;;;;;;;16.57;7.07;;;;;;;22.55;63.73;100374.33;126294;1099;105717;-77
2021/07/16 04:32:33;;;;;;;22.80;7.33;;;;;;;22.55;64.17;100360.09;126163;1099;104287;-76
2021/07/16 04:35:06;;;;;;;25.07;7.30;;;;;;;22.58;63.93;100362.72;126284;1099;104155;-77
2021/07/16 04:37:39;;;;;;;12.33;6.40;;;;;;;22.64;63.92;100365.29;126234;1099;104168;-77
2021/07/16 04:40:15;;;;;;;20.40;6.80;;;;;;;22.70;63.59;100364.28;126356;1099;104153;-77
2021/07/16 04:42:54;;;;;;;23.17;7.40;;;;;;;22.73;63.99;100373.13;126334;1099;104165;-77
2021/07/16 04:45:31;;;;;;;20.67;6.97;;;;;;;22.75;63.90;100367.76;126283;1099;104191;-77
2021/07/16 04:48:03;;;;;;;22.00;7.30;;;;;;;22.79;64.21;100375.70;126302;1099;104140;-77
2021/07/16 04:50:37;;;;;;;24.80;7.75;;;;;;;22.92;64.31;100384.43;126315;1099;104185;-76
2021/07/16 04:53:08;;;;;;;26.30;7.10;;;;;;;23.03;64.23;100372.64;126346;1099;104760;-77
2021/07/16 04:55:39;;;;;;;18.90;6.97;;;;;;;23.10;64.23;100377.02;126275;1099;104273;-78
2021/07/16 04:58:11;;;;;;;19.47;7.60;;;;;;;23.14;64.24;100382.29;126221;1099;104284;-79
2021/07/16 05:00:46;;;;;;;18.00;7.30;;;;;;;23.18;63.89;100388.45;126301;1099;104269;-77
2021/07/16 05:03:20;;;;;;;26.10;7.93;;;;;;;23.23;63.71;100378.55;126263;1099;104251;-81
2021/07/16 05:05:56;;;;;;;19.73;7.60;;;;;;;23.22;63.99;100382.16;126311;1099;104258;-78
2021/07/16 05:08:30;;;;;;;22.83;7.07;;;;;;;23.22;64.06;100381.25;126307;1097;104573;-78
2021/07/16 05:11:01;;;;;;;20.75;7.35;;;;;;;23.20;63.98;100378.59;126335;1099;104271;-79
2021/07/16 05:13:36;;;;;;;22.43;7.47;;;;;;;23.24;63.57;100388.35;126281;1099;104143;-80
2021/07/16 05:16:09;;;;;;;20.40;6.80;;;;;;;23.29;63.86;100380.23;126139;1099;104287;-77
2021/07/16 05:18:44;;;;;;;20.40;7.15;;;;;;;23.35;63.48;100388.16;126228;1099;104166;-79
2021/07/16 05:21:17;;;;;;;22.93;8.27;;;;;;;23.42;63.54;100379.10;126194;1098;104579;-79
2021/07/16 05:23:52;;;;;;;18.50;7.37;;;;;;;23.46;63.77;100374.56;126087;1098;104258;-79
2021/07/16 05:26:25;;;;;;;25.17;8.03;;;;;;;23.50;63.75;100381.63;126100;1099;104155;-81
2021/07/16 05:29:02;;;;;;;23.87;7.37;;;;;;;23.58;63.47;100371.64;125967;1099;104667;-80
2021/07/16 05:31:34;;;;;;;20.65;7.85;;;;;;;23.69;63.35;100366.94;126035;1099;104197;-78
2021/07/16 05:34:07;;;;;;;19.57;8.30;;;;;;;23.78;63.18;100376.59;126114;1099;104175;-78
2021/07/16 05:36:40;;;;;;;22.05;8.00;;;;;;;23.89;63.04;100371.05;126174;1099;104338;-77
2021/07/16 05:39:13;;;;;;;22.73;7.20;;;;;;;23.98;62.81;100375.30;125982;1099;104139;-79
2021/07/16 05:41:50;;;;;;;21.97;8.20;;;;;;;24.09;62.87;100361.67;125299;1099;104536;-79
2021/07/16 05:44:25;;;;;;;20.60;8.27;;;;;;;24.21;62.76;100372.12;126175;1099;104198;-78
2021/07/16 05:47:04;;;;;;;18.93;7.90;;;;;;;24.34;62.49;100378.08;126035;1099;104329;-80
2021/07/16 05:49:37;;;;;;;22.67;7.97;;;;;;;24.41;62.42;100374.34;126171;1099;104190;-77
2021/07/16 05:52:14;;;;;;;24.50;9.03;;;;;;;24.50;62.50;100370.58;126014;1099;104412;-78
2021/07/16 05:54:49;;;;;;;28.00;8.10;;;;;;;24.57;61.95;100374.88;125976;1099;104294;-78
2021/07/16 05:57:27;;;;;;;25.00;8.03;;;;;;;24.65;61.99;100370.24;126081;1099;104389;-80
2021/07/16 06:00:22;;;;;;;28.83;9.27;;;;;;;24.75;61.66;100369.07;126044;1098;111746;-79
2021/07/16 06:02:57;;;;;;;24.37;8.77;;;;;;;24.82;61.97;100367.11;126032;1099;104325;-80
2021/07/16 06:08:17;;;;;;;23.80;8.73;;;;;;;24.97;61.57;100376.58;125280;1099;104306;-77
2021/07/16 06:10:50;;;;;;;24.80;8.67;;;;;;;25.01;61.20;100372.91;126132;1099;104312;-78
2021/07/16 06:13:24;;;;;;;;;;;;;;;25.06;60.74;100362.92;126197;1099;104153;-78
2021/07/16 06:15:59;;;;;;;21.97;7.95;;;;;;;25.10;61.11;100364.61;126086;1099;104618;-77
2021/07/16 06:18:33;;;;;;;22.67;9.03;;;;;;;25.12;60.61;100362.76;126111;1099;104391;-79
2021/07/16 06:21:06;;;;;;;28.50;8.80;;;;;;;25.16;60.48;100354.63;126160;1099;104335;-79
2021/07/16 06:23:40;;;;;;;21.93;7.87;;;;;;;25.23;60.14;100369.66;126009;1099;104165;-78
2021/07/16 06:26:15;;;;;;;25.33;8.33;;;;;;;25.28;60.18;100370.41;126119;1099;104137;-81
2021/07/16 06:28:48;;;;;;;25.63;8.37;;;;;;;25.32;60.05;100369.41;126093;1099;104191;-78
2021/07/16 06:31:20;;;;;;;28.20;8.83;;;;;;;25.35;59.49;100369.33;126181;1099;104137;-77
2021/07/16 06:33:54;;;;;;;33.63;8.63;;;;;;;25.40;59.35;100367.41;126223;1098;104159;-80
2021/07/16 06:36:29;;;;;;;32.43;9.30;;;;;;;25.43;59.19;100364.64;126181;1099;104175;-79
2021/07/16 06:39:02;;;;;;;;;;;;;;;25.46;58.90;100364.56;126160;1099;104205;-78
2021/07/16 06:41:35;;;;;;;32.40;8.27;;;;;;;25.56;58.85;100356.24;126241;1098;104159;-77
2021/07/16 06:44:10;;;;;;;29.77;9.33;;;;;;;25.62;59.00;100354.25;126306;1099;104592;-79
2021/07/16 06:46:46;;;;;;;32.60;8.90;;;;;;;25.71;59.14;100350.42;126180;1099;104226;-78
2021/07/16 06:49:20;;;;;;;35.80;9.03;;;;;;;25.79;58.47;100348.39;126269;1099;104146;-78
2021/07/16 06:51:54;;;;;;;33.90;8.97;;;;;;;25.88;58.39;100349.03;126233;1099;104226;-78
2021/07/16 06:54:29;;;;;;;35.53;9.00;;;;;;;25.98;58.43;100350.55;126099;1099;104146;-77
2021/07/16 06:57:07;;;;;;;29.97;8.83;;;;;;;26.07;58.33;100352.96;126014;1099;104178;-77
2021/07/16 06:59:46;;;;;;;30.07;9.33;;;;;;;26.21;57.90;100355.22;125962;1099;104399;-78
2021/07/16 07:02:20;;;;;;;36.73;9.40;;;;;;;26.35;57.76;100358.34;126101;1099;104242;-81
2021/07/16 07:04:54;;;;;;;35.33;8.50;;;;;;;26.47;56.79;100354.36;126237;1099;104200;-78
2021/07/16 07:07:30;;;;;;;26.40;7.80;;;;;;;26.62;56.33;100347.61;126212;1099;104187;-78
2021/07/16 07:10:04;;;;;;;25.93;6.97;;;;;;;26.80;55.96;100347.95;126119;1099;104184;-80
2021/07/16 07:12:42;;;;;;;23.77;7.50;;;;;;;26.99;55.43;100361.65;126245;1099;101777;-79
2021/07/16 07:15:19;;;;;;;21.00;7.07;;;;;;;27.18;55.52;100343.92;126274;1099;104239;-79
2021/07/16 07:17:52;;;;;;;28.65;7.00;;;;;;;27.32;55.19;100348.85;126274;1099;104168;-75
2021/07/16 07:20:28;;;;;;;30.13;6.93;;;;;;;27.48;54.82;100342.91;126042;1099;104165;-79
2021/07/16 07:23:05;;;;;;;22.73;7.50;;;;;;;27.67;55.11;100343.09;126141;1099;104217;-78
2021/07/16 07:25:36;;;;;;;29.40;8.75;;;;;;;27.93;54.23;100348.36;126180;1099;104168;-78
2021/07/16 07:28:10;;;;;;;28.75;7.40;;;;;;;28.17;54.26;100344.80;126207;1099;104238;-77
2021/07/16 07:30:42;;;;;;;19.42;7.03;;;;;;;28.42;53.42;100336.58;126001;1099;104310;-78
2021/07/16 07:33:13;;;;;;;21.17;7.80;;;;;;;28.67;52.95;100334.66;126140;1099;104169;-78
2021/07/16 07:35:44;;;;;;;22.53;7.63;;;;;;;28.90;53.12;100332.78;126159;1099;104181;-78
2021/07/16 07:38:20;;;;;;;27.40;7.40;;;;;;;29.15;52.55;100334.41;126072;1099;104290;-78
2021/07/16 07:40:51;;;;;;;27.47;7.63;;;;;;;29.35;52.09;100345.23;126209;1099;104172;-78
2021/07/16 07:43:24;;;;;;;27.70;7.77;;;;;;;29.53;51.86;100343.54;126140;1099;104226;-79
2021/07/16 07:45:58;;;;;;;22.00;6.90;;;;;;;29.65;51.85;100333.97;126043;1099;104638;-78
2021/07/16 07:48:30;;;;;;;26.93;7.40;;;;;;;29.79;51.57;100335.16;126135;1099;104245;-79
2021/07/16 07:51:05;;;;;;;23.57;7.63;;;;;;;29.93;51.52;100338.12;126013;1099;103981;-79
2021/07/16 07:53:41;;;;;;;24.00;7.67;;;;;;;30.11;51.17;100328.25;125936;1099;104223;-80
2021/07/16 07:56:16;;;;;;;22.70;7.30;;;;;;;30.29;50.34;100334.58;126102;1099;104281;-80
2021/07/16 07:58:50;;;;;;;28.50;7.77;;;;;;;30.50;49.24;100323.70;126269;1099;104163;-80
2021/07/16 08:01:26;;;;;;;20.47;7.77;;;;;;;30.71;49.07;100332.55;126013;1097;104214;-79
2021/07/16 08:04:09;;;;;;;26.23;7.93;;;;;;;30.86;48.80;100333.61;126240;1099;104237;-78
2021/07/16 08:07:00;;;;;;;20.35;7.75;;;;;;;30.94;47.63;100326.81;126043;1099;104181;-80
2021/07/16 08:09:34;;;;;;;28.63;7.10;;;;;;;30.99;48.12;100330.22;126213;1099;104169;-80
2021/07/16 08:12:10;;;;;;;22.87;7.10;;;;;;;31.09;47.80;100327.00;126122;1099;104200;-81
2021/07/16 08:14:46;;;;;;;23.67;7.00;;;;;;;31.13;47.16;100324.05;126070;1099;104303;-80
2021/07/16 08:17:18;;;;;;;23.73;6.93;;;;;;;31.23;46.97;100328.98;126103;1099;104188;-80
2021/07/16 08:19:52;;;;;;;19.03;7.07;;;;;;;31.30;46.16;100325.86;126192;1099;104191;-78
2021/07/16 08:22:24;;;;;;;;;;;;;;;31.34;46.48;100327.45;126119;1099;104572;-79
2021/07/16 08:25:00;;;;;;;24.40;5.90;;;;;;;31.36;44.69;100319.25;125415;1102;104332;-79
2021/07/16 08:27:32;;;;;;;19.93;6.07;;;;;;;31.38;44.59;100320.03;126108;1099;104246;-78
2021/07/16 08:30:04;;;;;;;19.90;6.27;;;;;;;31.41;44.37;100317.15;125994;1099;104309;-80
2021/07/16 08:32:37;;;;;;;19.83;6.33;;;;;;;31.48;43.79;100313.16;125890;1099;104194;-79
2021/07/16 08:35:14;;;;;;;27.27;6.50;;;;;;;31.56;43.75;100312.77;126098;1099;104740;-78
2021/07/16 08:37:49;;;;;;;21.90;6.23;;;;;;;31.58;42.64;100307.27;126150;1099;104253;-78
2021/07/16 08:40:34;;;;;;;18.27;6.33;;;;;;;31.65;42.71;100305.95;126192;1098;104306;-79
2021/07/16 08:43:24;;;;;;;20.70;6.23;;;;;;;31.67;42.16;100309.47;125113;1102;101957;-79
2021/07/16 08:46:00;;;;;;;22.87;6.53;;;;;;;31.81;42.20;100309.57;124959;1102;104380;-79
2021/07/16 08:48:33;;;;;;;17.47;6.17;;;;;;;31.94;41.70;100312.45;125124;1102;104153;-79
2021/07/16 08:51:06;;;;;;;23.63;6.10;;;;;;;31.99;41.50;100313.09;125166;1102;104159;-78
2021/07/16 08:53:40;;;;;;;26.27;5.95;;;;;;;32.01;41.32;100302.16;125148;1102;118959;-77
2021/07/16 08:56:19;;;;;;;18.00;6.17;;;;;;;32.04;40.26;100310.12;125153;1102;104204;-78
2021/07/16 08:58:54;;;;;;;15.97;5.53;;;;;;;32.09;39.69;100302.61;125275;1102;104836;-78
2021/07/16 09:01:25;;;;;;;12.63;4.87;;;;;;;32.14;38.74;100294.21;125158;1102;104461;-79
2021/07/16 09:04:04;;;;;;;17.32;5.62;;;;;;;32.24;38.66;100300.84;125267;1102;104393;-77
2021/07/16 09:06:52;;;;;;;16.50;5.47;;;;;;;32.32;38.60;100290.43;125195;1102;104434;-79
2021/07/16 09:09:34;;;;;;;20.60;5.40;;;;;;;32.42;37.98;100296.19;125153;1102;104264;-79
2021/07/16 09:12:13;;;;;;;16.27;5.50;;;;;;;32.51;37.94;100292.06;124930;1102;104469;-80
2021/07/16 09:14:46;;;;;;;24.33;5.80;;;;;;;32.54;37.52;100286.45;125212;1102;104192;-80
2021/07/16 09:17:20;;;;;;;17.07;5.67;;;;;;;32.55;37.83;100293.61;125245;1102;104338;-79
2021/07/16 09:19:52;;;;;;;;;;;;;;;32.62;37.37;100286.86;125184;1102;104200;-78
2021/07/16 09:22:33;;;;;;;18.93;5.60;;;;;;;32.53;36.37;100280.13;125072;1102;104338;-77
2021/07/16 09:25:08;;;;;;;12.53;5.27;;;;;;;32.54;35.79;100276.45;126058;1099;104163;-77
2021/07/16 09:27:45;;;;;;;16.17;5.33;;;;;;;32.63;35.85;100272.32;126256;1099;104194;-78
2021/07/16 09:30:21;;;;;;;13.23;5.40;;;;;;;32.76;35.77;100267.91;126286;1099;104168;-79
2021/07/16 09:32:55;;;;;;;15.13;5.40;;;;;;;32.93;35.15;100275.03;126143;1098;104181;-79
2021/07/16 09:35:29;;;;;;;18.87;6.23;;;;;;;33.05;35.24;100276.13;126106;1099;104296;-78
2021/07/16 09:38:04;;;;;;;15.83;5.10;;;;;;;33.15;34.82;100281.86;126224;1098;104147;-77
2021/07/16 09:40:39;;;;;;;21.17;5.20;;;;;;;33.08;34.45;100270.50;126287;1099;104198;-77
2021/07/16 09:43:21;;;;;;;17.67;5.10;;;;;;;33.11;34.19;100280.30;126017;1099;104166;-79
2021/07/16 09:46:04;;;;;;;16.80;5.03;;;;;;;33.20;33.92;100268.02;126335;1098;104736;-78
2021/07/16 09:48:41;;;;;;;19.00;5.57;;;;;;;33.25;33.71;100274.03;126225;1099;104142;-78
2021/07/16 09:51:20;;;;;;;18.23;6.10;;;;;;;33.31;33.92;100271.78;126066;1099;104252;-78
2021/07/16 09:53:58;;;;;;;16.43;4.87;;;;;;;33.29;33.30;100271.02;126127;1099;104203;-77
2021/07/16 09:56:31;;;;;;;17.00;5.53;;;;;;;33.30;33.13;100277.32;126226;1099;104146;-77
2021/07/16 09:59:06;;;;;;;11.60;4.63;;;;;;;33.32;32.81;100287.14;126129;1099;104242;-76
2021/07/16 10:01:39;;;;;;;13.73;5.13;;;;;;;33.38;32.85;100287.72;126042;1099;104361;-76
2021/07/16 10:04:20;;;;;;;11.53;4.93;;;;;;;33.49;32.26;100279.77;126120;1099;104220;-77
2021/07/16 10:06:56;;;;;;;13.97;4.93;;;;;;;33.54;32.08;100282.20;126011;1099;104175;-77
2021/07/16 10:09:28;;;;;;;19.67;4.63;;;;;;;33.58;31.91;100286.45;125990;1098;104249;-77
2021/07/16 10:12:01;;;;;;;15.77;4.67;;;;;;;33.63;31.95;100278.89;126071;1099;104214;-77
2021/07/16 10:14:32;;;;;;;20.83;4.90;;;;;;;33.74;31.86;100281.81;126082;1099;104326;-77
2021/07/16 10:17:04;;;;;;;18.03;4.90;;;;;;;33.79;31.59;100282.38;125947;1099;104275;-77
2021/07/16 10:19:36;;;;;;;12.30;4.60;;;;;;;33.81;31.39;100280.42;125984;1098;104168;-77
2021/07/16 10:22:09;;;;;;;10.20;4.50;;;;;;;33.89;31.27;100277.20;126084;1099;104267;-78
2021/07/16 10:24:45;;;;;;;11.33;4.47;;;;;;;33.89;30.93;100271.76;126113;1099;104216;-78
2021/07/16 10:27:20;;;;;;;18.37;5.10;;;;;;;33.80;30.69;100272.36;126132;1099;104172;-77
2021/07/16 10:30:05;;;;;;;10.53;4.50;;;;;;;33.66;30.16;100279.56;126044;1099;104174;-78
2021/07/16 10:32:45;;;;;;;13.77;4.73;;;;;;;33.64;30.56;100276.07;126201;1099;104284;-77
2021/07/16 10:35:20;;;;;;;12.20;4.27;;;;;;;33.72;30.37;100270.14;126098;1099;104172;-75
2021/07/16 10:37:54;;;;;;;14.00;4.70;;;;;;;33.84;30.24;100279.36;126231;1099;104181;-74
2021/07/16 10:40:44;;;;;;;13.27;4.63;;;;;;;33.89;29.98;100276.34;126106;1099;104395;-75
2021/07/16 10:43:40;;;;;;;14.07;4.87;;;;;;;33.89;30.20;100269.04;126027;1098;104163;-76
2021/07/16 10:46:33;;;;;;;16.87;5.17;;;;;;;33.82;30.41;100263.13;126034;1099;110820;-76
2021/07/16 10:49:08;;;;;;;15.43;5.03;;;;;;;33.79;30.18;100263.34;126088;1099;104639;-75
2021/07/16 10:51:41;;;;;;;18.70;5.23;;;;;;;33.70;30.17;100260.31;126269;1099;104142;-76
2021/07/16 10:54:18;;;;;;;14.33;4.83;;;;;;;33.61;29.82;100259.95;126221;1099;104305;-76
2021/07/16 10:56:50;;;;;;;13.03;4.40;;;;;;;33.66;30.09;100260.52;126188;1099;104175;-76
2021/07/16 10:59:45;;;;;;;10.48;4.47;;;;;;;33.72;29.65;100261.11;126171;1099;104139;-77
2021/07/16 11:02:43;;;;;;;18.57;4.77;;;;;;;33.73;29.69;100265.59;126138;1099;105168;-77
2021/07/16 11:05:42;;;;;;;15.87;4.80;;;;;;;33.85;29.89;100267.52;126120;1099;104784;-78
2021/07/16 11:08:51;;;;;;;8.77;4.40;;;;;;;34.02;29.82;100256.38;125324;1102;104555;-80
2021/07/16 11:11:37;;;;;;;13.00;4.63;;;;;;;34.09;29.32;100250.53;125541;1099;104143;-77
2021/07/16 11:14:25;;;;;;;9.93;4.40;;;;;;;34.14;29.38;100248.36;126051;1099;104270;-78
2021/07/16 11:17:06;;;;;;;12.80;4.47;;;;;;;34.16;29.46;100246.43;126126;1099;104315;-80
2021/07/16 11:19:39;;;;;;;16.00;4.33;;;;;;;34.21;29.41;100255.16;126121;1099;104181;-80
2021/07/16 11:22:11;;;;;;;11.57;3.87;;;;;;;34.24;28.98;100243.23;126068;1099;104156;-76
2021/07/16 11:24:57;;;;;;;10.03;4.27;;;;;;;34.31;28.56;100242.67;125282;1099;105497;-76
2021/07/16 11:27:29;;;;;;;11.90;4.20;;;;;;;34.31;28.49;100248.13;126028;1099;104204;-76
2021/07/16 11:30:03;;;;;;;12.70;5.10;;;;;;;34.30;28.13;100246.40;126167;1099;104720;-80
2021/07/16 11:32:37;;;;;;;11.47;4.60;;;;;;;34.24;27.75;100243.23;126105;1099;102932;-78
2021/07/16 11:35:13;;;;;;;13.73;4.17;;;;;;;34.23;27.48;100249.61;125309;1099;104312;-78
2021/07/16 11:37:48;;;;;;;12.60;4.80;;;;;;;34.22;27.58;100240.58;126219;1099;104140;-77